createdAt,value
2022-08-22T00:00:51.825Z,100753.66
2022-08-22T00:03:01.249Z,100716.91
2022-08-22T00:03:31.434Z,100754.13
2022-08-22T00:06:06.950Z,100748.94
2022-08-22T00:08:46.159Z,100752.59
2022-08-22T00:11:22.070Z,100752.81
2022-08-22T00:14:01.299Z,100751.44
2022-08-22T00:16:39.492Z,100751.09
2022-08-22T00:19:18.722Z,100755.16
2022-08-22T00:22:00.250Z,100758.81
2022-08-22T00:24:32.231Z,100760.69
2022-08-22T00:27:04.349Z,100755.56
2022-08-22T00:29:38.818Z,100756.16
2022-08-22T00:32:12.928Z,100762.66
2022-08-22T00:34:47.683Z,100757.09
2022-08-22T00:37:24.450Z,100753.88
2022-08-22T00:39:56.087Z,100765.13
2022-08-22T00:42:54.205Z,100760.63
2022-08-22T00:45:48.422Z,100754.22
2022-08-22T00:48:36.129Z,100754.22
2022-08-22T00:51:24.080Z,100758.41
2022-08-22T00:54:01.154Z,100747.81
2022-08-22T00:57:06.269Z,100752.19
2022-08-22T00:59:52.884Z,100755.50
2022-08-22T01:02:32.920Z,100751.94
2022-08-22T01:05:39.705Z,100756.78
2022-08-22T01:08:22.352Z,100759.88
2022-08-22T01:11:06.229Z,100759.06
2022-08-22T01:13:47.999Z,100757.16
2022-08-22T01:16:41.657Z,100756.56
2022-08-22T01:19:50.786Z,100755.06
2022-08-22T01:22:48.082Z,100757.91
2022-08-22T01:25:49.802Z,100749.94
2022-08-22T01:28:43.920Z,100753.47
2022-08-22T01:32:10.821Z,100759.53
2022-08-22T01:35:05.557Z,100762.94
2022-08-22T01:37:48.846Z,100764.72
2022-08-22T01:41:04.560Z,100761.09
2022-08-22T01:43:59.362Z,100760.28
2022-08-22T01:46:35.090Z,100758.25
2022-08-22T01:49:09.799Z,100757.28
2022-08-22T01:51:47.021Z,100764.28
2022-08-22T01:54:25.943Z,100757.47
2022-08-22T01:57:01.261Z,100763.31
2022-08-22T01:59:35.343Z,100755.91
2022-08-22T02:02:31.118Z,100754.97
2022-08-22T02:05:07.465Z,100754.47
2022-08-22T02:07:52.871Z,100757.91
2022-08-22T02:10:26.307Z,100756.28
2022-08-22T02:13:05.275Z,100756.66
2022-08-22T02:15:47.963Z,100762.00
2022-08-22T02:18:25.725Z,100759.72
2022-08-22T02:21:04.037Z,100762.69
2022-08-22T02:23:45.248Z,100761.19
2022-08-22T02:26:18.359Z,100757.31
2022-08-22T02:28:56.943Z,100765.13
2022-08-22T02:31:37.787Z,100762.56
2022-08-22T02:34:21.498Z,100754.75
2022-08-22T02:36:58.176Z,100753.66
2022-08-22T02:39:36.798Z,100751.53
2022-08-22T02:42:17.494Z,100753.19
2022-08-22T02:44:56.381Z,100743.47
2022-08-22T02:47:34.052Z,100735.53
2022-08-22T02:50:13.146Z,100745.13
2022-08-22T02:52:54.385Z,100743.81
2022-08-22T02:55:37.202Z,100743.03
2022-08-22T02:58:09.799Z,100739.94
2022-08-22T03:00:48.185Z,100742.69
2022-08-22T03:03:21.120Z,100738.84
2022-08-22T03:06:01.433Z,100742.88
2022-08-22T03:08:32.963Z,100740.31
2022-08-22T03:11:19.787Z,100734.47
2022-08-22T03:14:02.685Z,100732.69
2022-08-22T03:16:37.302Z,100724.09
2022-08-22T03:19:13.320Z,100729.63
2022-08-22T03:21:54.901Z,100734.00
2022-08-22T03:24:26.917Z,100730.91
2022-08-22T03:27:02.924Z,100729.13
2022-08-22T03:29:35.744Z,100727.50
2022-08-22T03:32:14.972Z,100722.16
2022-08-22T03:34:57.935Z,100723.94
2022-08-22T03:37:37.503Z,100724.91
2022-08-22T03:40:21.236Z,100719.75
2022-08-22T03:43:25.894Z,100717.16
2022-08-22T03:46:42.022Z,100714.06
2022-08-22T03:49:42.214Z,100710.50
2022-08-22T03:52:28.938Z,100710.50
2022-08-22T03:55:14.053Z,100716.66
2022-08-22T03:58:00.500Z,100706.59
2022-08-22T04:00:47.746Z,100721.03
2022-08-22T04:04:01.290Z,100708.88
2022-08-22T04:07:00.135Z,100708.38
2022-08-22T04:10:04.180Z,100715.34
2022-08-22T04:12:55.453Z,100716.31
2022-08-22T04:15:50.042Z,100712.75
2022-08-22T04:18:33.327Z,100713.56
2022-08-22T04:21:28.367Z,100725.06
2022-08-22T04:24:21.680Z,100728.00
2022-08-22T04:26:53.991Z,100722.31
2022-08-22T04:29:28.238Z,100720.03
2022-08-22T04:32:07.000Z,100726.38
2022-08-22T04:34:41.124Z,100729.41
2022-08-22T04:37:15.735Z,100723.09
2022-08-22T04:39:49.750Z,100722.41
2022-08-22T04:42:32.725Z,100718.38
2022-08-22T04:45:06.971Z,100720.31
2022-08-22T04:47:40.015Z,100721.75
2022-08-22T04:50:21.289Z,100731.31
2022-08-22T04:53:10.710Z,100728.53
2022-08-22T04:55:55.419Z,100728.69
2022-08-22T04:58:33.029Z,100726.88
2022-08-22T05:01:10.480Z,100733.00
2022-08-22T05:03:45.863Z,100727.44
2022-08-22T05:06:19.764Z,100733.06
2022-08-22T05:08:53.895Z,100728.31
2022-08-22T05:11:24.787Z,100737.63
2022-08-22T05:13:56.078Z,100731.19
2022-08-22T05:16:28.510Z,100738.72
2022-08-22T05:19:01.818Z,100744.03
2022-08-22T05:21:33.830Z,100746.97
2022-08-22T05:24:05.652Z,100751.97
2022-08-22T05:26:38.954Z,100743.63
2022-08-22T05:29:09.147Z,100751.47
2022-08-22T05:31:45.274Z,100748.16
2022-08-22T05:34:19.091Z,100747.88
2022-08-22T05:36:50.196Z,100751.56
2022-08-22T05:39:22.507Z,100744.78
2022-08-22T05:41:55.817Z,100755.88
2022-08-22T05:44:27.030Z,100754.22
2022-08-22T05:47:01.243Z,100751.09
2022-08-22T05:49:38.863Z,100756.06
2022-08-22T05:52:20.295Z,100758.06
2022-08-22T05:54:54.579Z,100758.59
2022-08-22T05:57:29.986Z,100755.50
2022-08-22T06:00:05.104Z,100760.91
2022-08-22T06:02:49.410Z,100752.47
2022-08-22T06:05:25.790Z,100751.81
2022-08-22T06:08:00.194Z,100756.19
2022-08-22T06:10:35.944Z,100764.59
2022-08-22T06:13:11.510Z,100757.69
2022-08-22T06:15:48.667Z,100762.63
2022-08-22T06:18:21.478Z,100759.31
2022-08-22T06:20:54.590Z,100761.81
2022-08-22T06:23:27.607Z,100760.19
2022-08-22T06:26:00.627Z,100763.19
2022-08-22T06:28:32.824Z,100757.19
2022-08-22T06:31:03.452Z,100762.03
2022-08-22T06:33:37.946Z,100766.66
2022-08-22T06:36:29.257Z,100776.00
2022-08-22T06:39:06.572Z,100763.97
2022-08-22T06:41:36.784Z,100773.75
2022-08-22T06:44:07.989Z,100773.97
2022-08-22T06:46:38.239Z,100765.28
2022-08-22T06:49:09.227Z,100761.50
2022-08-22T06:51:39.722Z,100765.88
2022-08-22T06:54:16.634Z,100768.84
2022-08-22T06:56:48.347Z,100773.09
2022-08-22T06:59:18.475Z,100757.44
2022-08-22T07:01:52.466Z,100762.63
2022-08-22T07:04:26.401Z,100762.75
2022-08-22T07:06:58.290Z,100767.41
2022-08-22T07:09:32.087Z,100771.00
2022-08-22T07:12:04.030Z,100775.91
2022-08-22T07:14:40.728Z,100770.78
2022-08-22T07:17:15.933Z,100770.19
2022-08-22T07:19:50.449Z,100774.91
2022-08-22T07:22:25.156Z,100773.25
2022-08-22T07:25:02.282Z,100782.63
2022-08-22T07:27:48.806Z,100783.44
2022-08-22T07:30:27.941Z,100785.56
2022-08-22T07:33:26.159Z,100778.97
2022-08-22T07:35:56.819Z,100779.66
2022-08-22T07:38:33.628Z,100785.69
2022-08-22T07:41:12.842Z,100782.56
2022-08-22T07:43:46.144Z,100789.00
2022-08-22T07:46:27.466Z,100782.59
2022-08-22T07:49:09.414Z,100780.91
2022-08-22T07:51:44.095Z,100782.84
2022-08-22T07:54:15.555Z,100779.94
2022-08-22T07:56:48.308Z,100783.13
2022-08-22T07:59:19.331Z,100779.72
2022-08-22T08:01:51.534Z,100782.19
2022-08-22T08:04:24.762Z,100783.63
2022-08-22T08:06:55.753Z,100786.19
2022-08-22T08:09:28.764Z,100782.34
2022-08-22T08:11:57.187Z,100774.75
2022-08-22T08:14:27.102Z,100781.41
2022-08-22T08:17:02.304Z,100769.03
2022-08-22T08:19:33.307Z,100779.13
2022-08-22T08:22:01.520Z,100774.13
2022-08-22T08:24:39.838Z,100764.34
2022-08-22T08:27:33.245Z,100776.25
2022-08-22T08:30:04.054Z,100764.50
2022-08-22T08:32:36.078Z,100756.69
2022-08-22T08:35:10.475Z,100755.75
2022-08-22T08:37:44.713Z,100752.41
2022-08-22T08:40:25.576Z,100756.69
2022-08-22T08:43:29.617Z,100751.94
2022-08-22T08:46:24.756Z,100737.59
2022-08-22T08:49:29.445Z,100726.88
2022-08-22T08:52:49.031Z,100730.00
2022-08-22T08:55:30.374Z,100720.13
2022-08-22T08:58:24.076Z,100718.66
2022-08-22T09:00:59.541Z,100717.84
2022-08-22T09:04:13.455Z,100715.34
2022-08-22T09:07:01.493Z,100712.81
2022-08-22T09:09:52.409Z,100713.44
2022-08-22T09:16:04.598Z,100698.72
2022-08-22T09:18:52.065Z,100703.94
2022-08-22T09:21:50.578Z,100707.75
2022-08-22T09:24:46.500Z,100701.41
2022-08-22T09:27:20.304Z,100698.09
2022-08-22T09:29:59.634Z,100696.66
2022-08-22T09:32:42.429Z,100697.03
2022-08-22T09:35:20.040Z,100699.47
2022-08-22T09:38:02.649Z,100693.13
2022-08-22T09:40:35.880Z,100688.38
2022-08-22T09:43:07.540Z,100689.09
2022-08-22T09:46:02.486Z,100685.66
2022-08-22T09:48:42.483Z,100676.97
2022-08-22T09:51:32.452Z,100675.97
2022-08-22T09:54:24.820Z,100674.63
2022-08-22T09:57:04.041Z,100665.50
2022-08-22T09:59:51.495Z,100674.50
2022-08-22T10:02:29.567Z,100678.16
2022-08-22T10:05:04.155Z,100664.50
2022-08-22T10:07:46.879Z,100669.56
2022-08-22T10:10:36.792Z,100663.91
2022-08-22T10:13:13.102Z,100655.03
2022-08-22T10:15:44.015Z,100661.34
2022-08-22T10:18:29.685Z,100649.50
2022-08-22T10:21:09.740Z,100661.66
2022-08-22T10:23:45.902Z,100655.00
2022-08-22T10:26:29.162Z,100652.59
2022-08-22T10:29:06.873Z,100647.22
2022-08-22T10:31:45.071Z,100649.06
2022-08-22T10:34:34.109Z,100648.94
2022-08-22T10:37:23.769Z,100651.41
2022-08-22T10:39:59.720Z,100653.94
2022-08-22T10:42:35.723Z,100649.69
2022-08-22T10:45:23.997Z,100637.19
2022-08-22T10:48:24.258Z,100644.41
2022-08-22T10:51:08.926Z,100642.78
2022-08-22T10:53:57.010Z,100641.56
2022-08-22T10:56:28.393Z,100638.16
2022-08-22T10:59:08.205Z,100633.97
2022-08-22T11:01:51.166Z,100634.44
2022-08-22T11:04:36.128Z,100632.19
2022-08-22T11:07:21.518Z,100635.16
2022-08-22T11:09:58.774Z,100635.94
2022-08-22T11:12:36.563Z,100635.81
2022-08-22T11:15:34.515Z,100623.66
2022-08-22T11:18:20.516Z,100640.38
2022-08-22T11:21:00.106Z,100628.72
2022-08-22T11:23:40.120Z,100609.88
2022-08-22T11:26:29.908Z,100618.44
2022-08-22T11:29:26.339Z,100608.97
2022-08-22T11:32:07.838Z,100610.81
2022-08-22T11:34:51.660Z,100599.56
2022-08-22T11:37:42.823Z,100607.44
2022-08-22T11:40:23.954Z,100602.72
2022-08-22T11:43:02.976Z,100623.16
2022-08-22T11:45:40.408Z,100603.81
2022-08-22T11:48:21.130Z,100599.00
2022-08-22T11:50:55.759Z,100603.97
2022-08-22T11:53:34.942Z,100593.75
2022-08-22T11:56:17.421Z,100604.59
2022-08-22T11:58:57.667Z,100582.66
2022-08-22T12:01:35.099Z,100585.69
2022-08-22T12:04:12.941Z,100590.25
2022-08-22T12:06:51.402Z,100586.56
2022-08-22T12:09:31.839Z,100576.00
2022-08-22T12:12:32.528Z,100586.78
2022-08-22T12:15:09.189Z,100571.84
2022-08-22T12:18:01.976Z,100581.56
2022-08-22T12:20:56.088Z,100573.00
2022-08-22T12:23:49.443Z,100575.69
2022-08-22T12:26:28.057Z,100572.78
2022-08-22T12:29:15.523Z,100567.09
2022-08-22T12:32:31.915Z,100566.53
2022-08-22T12:35:18.528Z,100565.88
2022-08-22T12:37:54.350Z,100560.03
2022-08-22T12:40:32.786Z,100554.59
2022-08-22T12:43:33.489Z,100556.19
2022-08-22T12:46:35.482Z,100555.47
2022-08-22T12:49:22.695Z,100553.50
2022-08-22T12:52:04.748Z,100549.88
2022-08-22T12:54:53.641Z,100549.97
2022-08-22T12:57:34.337Z,100547.06
2022-08-22T13:00:22.840Z,100549.53
2022-08-22T13:02:55.805Z,100540.03
2022-08-22T13:05:27.363Z,100549.50
2022-08-22T13:08:02.397Z,100555.25
2022-08-22T13:10:39.970Z,100551.84
2022-08-22T13:13:12.829Z,100545.97
2022-08-22T13:15:53.863Z,100543.97
2022-08-22T13:18:29.798Z,100553.03
2022-08-22T13:21:02.735Z,100545.84
2022-08-22T13:23:34.259Z,100546.22
2022-08-22T13:26:12.252Z,100542.19
2022-08-22T13:29:24.173Z,100544.31
2022-08-22T13:31:55.177Z,100538.09
2022-08-22T13:34:39.661Z,100537.84
2022-08-22T13:37:12.710Z,100541.47
2022-08-22T13:39:45.647Z,100537.16
2022-08-22T13:42:29.728Z,100534.00
2022-08-22T13:45:02.224Z,100534.34
2022-08-22T13:47:34.569Z,100530.38
2022-08-22T13:50:23.556Z,100533.06
2022-08-22T13:52:59.082Z,100528.19
2022-08-22T13:55:34.001Z,100524.84
2022-08-22T13:58:07.685Z,100527.25
2022-08-22T14:01:13.913Z,100526.28
2022-08-22T14:03:49.124Z,100530.69
2022-08-22T14:06:37.924Z,100524.75
2022-08-22T14:09:15.508Z,100519.47
2022-08-22T14:11:50.024Z,100519.03
2022-08-22T14:14:26.484Z,100516.47
2022-08-22T14:16:56.185Z,100520.34
2022-08-22T14:19:31.943Z,100521.59
2022-08-22T14:22:31.997Z,100513.53
2022-08-22T14:25:07.338Z,100513.16
2022-08-22T14:27:39.780Z,100517.66
2022-08-22T14:30:15.836Z,100521.53
2022-08-22T14:32:48.650Z,100520.66
2022-08-22T14:35:29.238Z,100509.97
2022-08-22T14:38:17.868Z,100506.97
2022-08-22T14:40:47.475Z,100514.91
2022-08-22T14:43:22.794Z,100503.59
2022-08-22T14:45:57.843Z,100507.69
2022-08-22T14:48:40.573Z,100503.50
2022-08-22T14:51:18.401Z,100506.00
2022-08-22T14:53:51.341Z,100494.63
2022-08-22T14:56:22.941Z,100494.22
2022-08-22T14:58:54.854Z,100498.63
2022-08-22T15:01:25.411Z,100497.97
2022-08-22T15:03:56.376Z,100486.84
2022-08-22T15:06:37.072Z,100487.94
2022-08-22T15:09:12.617Z,100490.91
2022-08-22T15:11:48.619Z,100486.41
2022-08-22T15:14:25.322Z,100492.84
2022-08-22T15:16:56.042Z,100483.47
2022-08-22T15:19:27.485Z,100480.38
2022-08-22T15:22:11.372Z,100489.28
2022-08-22T15:24:46.138Z,100479.66
2022-08-22T15:27:18.886Z,100479.56
2022-08-22T15:29:52.477Z,100479.88
2022-08-22T15:32:26.801Z,100475.38
2022-08-22T15:35:05.016Z,100474.41
2022-08-22T15:37:34.961Z,100473.34
2022-08-22T15:40:12.717Z,100469.66
2022-08-22T15:42:42.058Z,100471.97
2022-08-22T15:45:20.963Z,100466.19
2022-08-22T15:47:53.768Z,100461.78
2022-08-22T15:50:35.591Z,100463.81
2022-08-22T15:53:13.403Z,100462.59
2022-08-22T15:56:27.915Z,100470.38
2022-08-22T15:59:23.966Z,100464.06
2022-08-22T16:01:54.885Z,100470.09
2022-08-22T16:04:43.753Z,100464.66
2022-08-22T16:07:38.739Z,100454.94
2022-08-22T16:10:14.468Z,100457.56
2022-08-22T16:12:47.676Z,100459.88
2022-08-22T16:15:56.937Z,100467.44
2022-08-22T16:19:02.023Z,100462.00
2022-08-22T16:22:10.326Z,100464.94
2022-08-22T16:24:57.476Z,100459.28
2022-08-22T16:27:28.058Z,100462.13
2022-08-22T16:30:13.130Z,100463.47
2022-08-22T16:32:52.170Z,100468.25
2022-08-22T16:35:57.296Z,100459.41
2022-08-22T16:38:26.885Z,100462.59
2022-08-22T16:40:54.958Z,100464.63
2022-08-22T16:43:23.210Z,100457.91
2022-08-22T16:45:58.924Z,100461.31
2022-08-22T16:48:36.053Z,100465.94
2022-08-22T16:51:14.751Z,100454.38
2022-08-22T16:54:06.150Z,100455.22
2022-08-22T16:56:40.539Z,100463.84
2022-08-22T16:59:28.784Z,100462.56
2022-08-22T17:02:32.300Z,100458.81
2022-08-22T17:05:21.023Z,100455.69
2022-08-22T17:08:03.832Z,100458.03
2022-08-22T17:10:43.231Z,100459.00
2022-08-22T17:13:26.560Z,100461.50
2022-08-22T17:16:09.968Z,100459.63
2022-08-22T17:18:50.755Z,100456.56
2022-08-22T17:21:26.165Z,100456.59
2022-08-22T17:24:04.994Z,100444.22
2022-08-22T17:26:48.799Z,100443.47
2022-08-22T17:29:30.539Z,100450.75
2022-08-22T17:32:08.124Z,100447.72
2022-08-22T17:34:43.634Z,100453.44
2022-08-22T17:37:22.658Z,100457.50
2022-08-22T17:40:17.805Z,100449.63
2022-08-22T17:42:55.470Z,100452.13
2022-08-22T17:45:37.287Z,100461.78
2022-08-22T17:48:16.962Z,100462.63
2022-08-22T17:50:50.451Z,100463.84
2022-08-22T17:53:30.153Z,100460.28
2022-08-22T17:56:05.727Z,100457.50
2022-08-22T17:58:43.685Z,100469.16
2022-08-22T18:01:15.332Z,100470.75
2022-08-22T18:03:51.822Z,100471.16
2022-08-22T18:06:25.145Z,100465.56
2022-08-22T18:11:50.998Z,100471.56
2022-08-22T18:14:30.761Z,100465.19
2022-08-22T18:17:00.990Z,100473.19
2022-08-22T18:19:53.852Z,100463.56
2022-08-22T18:22:29.171Z,100468.34
2022-08-22T18:25:02.461Z,100467.53
2022-08-22T18:27:37.245Z,100474.31
2022-08-22T18:30:16.075Z,100468.25
2022-08-22T18:32:54.865Z,100477.75
2022-08-22T18:35:29.512Z,100472.56
2022-08-22T18:38:19.705Z,100480.09
2022-08-22T18:40:51.561Z,100482.47
2022-08-22T18:43:24.213Z,100482.41
2022-08-22T18:46:03.582Z,100487.91
2022-08-22T18:48:59.470Z,100493.09
2022-08-22T18:51:38.522Z,100498.22
2022-08-22T18:54:34.904Z,100492.97
2022-08-22T18:57:23.656Z,100502.91
2022-08-22T19:00:05.128Z,100493.28
2022-08-22T19:02:55.685Z,100498.84
2022-08-22T19:05:54.657Z,100505.19
2022-08-22T19:08:36.465Z,100507.59
2022-08-22T19:11:17.497Z,100521.19
2022-08-22T19:14:25.194Z,100516.44
2022-08-22T19:17:18.970Z,100511.28
2022-08-22T19:20:14.533Z,100524.44
2022-08-22T19:22:43.427Z,100524.16
2022-08-22T19:25:19.238Z,100523.31
2022-08-22T19:28:26.656Z,100519.69
2022-08-22T19:31:24.529Z,100526.41
2022-08-22T19:34:29.884Z,100530.41
2022-08-22T19:37:30.820Z,100545.50
2022-08-22T19:40:02.964Z,100533.88
2022-08-22T19:42:39.446Z,100531.88
2022-08-22T19:45:18.738Z,100533.81
2022-08-22T19:47:57.654Z,100534.41
2022-08-22T19:50:31.370Z,100541.06
2022-08-22T19:53:20.562Z,100540.13
2022-08-22T19:56:02.678Z,100537.28
2022-08-22T19:58:45.085Z,100530.16
2022-08-22T20:01:31.957Z,100541.28
2022-08-22T20:04:08.512Z,100537.22
2022-08-22T20:06:44.422Z,100533.06
2022-08-22T20:09:25.746Z,100533.78
2022-08-22T20:12:05.458Z,100534.53
2022-08-22T20:14:35.585Z,100532.13
2022-08-22T20:17:12.798Z,100532.94
2022-08-22T20:22:44.391Z,100536.06
2022-08-22T20:25:41.573Z,100535.16
2022-08-22T20:28:11.223Z,100528.34
2022-08-22T20:30:42.125Z,100528.69
2022-08-22T20:33:18.437Z,100527.06
2022-08-22T20:35:54.267Z,100524.34
2022-08-22T20:38:27.860Z,100525.38
2022-08-22T20:41:11.044Z,100522.97
2022-08-22T20:43:46.088Z,100518.38
2022-08-22T20:46:26.485Z,100521.81
2022-08-22T20:48:57.132Z,100521.06
2022-08-22T20:51:28.223Z,100523.06
2022-08-22T20:53:58.656Z,100527.41
2022-08-22T20:56:34.948Z,100524.50
2022-08-22T20:59:16.866Z,100524.13
2022-08-22T21:01:46.087Z,100520.53
2022-08-22T21:04:15.790Z,100526.06
2022-08-22T21:06:44.988Z,100525.22
2022-08-22T21:09:35.699Z,100522.44
2022-08-22T21:12:04.785Z,100524.50
2022-08-22T21:14:37.530Z,100530.09
2022-08-22T21:17:21.036Z,100532.03
2022-08-22T21:19:49.144Z,100521.19
2022-08-22T21:22:30.163Z,100524.31
2022-08-22T21:25:00.289Z,100534.59
2022-08-22T21:27:31.355Z,100523.94
2022-08-22T21:30:01.093Z,100533.03
2022-08-22T21:32:34.603Z,100535.34
2022-08-22T21:35:05.014Z,100539.03
2022-08-22T21:37:41.625Z,100537.63
2022-08-22T21:40:18.102Z,100539.97
2022-08-22T21:42:59.357Z,100533.31
2022-08-22T21:45:29.664Z,100532.75
2022-08-22T21:47:58.404Z,100533.44
2022-08-22T21:50:31.694Z,100524.97
2022-08-22T21:53:10.181Z,100533.22
2022-08-22T21:55:42.835Z,100530.75
2022-08-22T21:58:36.014Z,100525.94
2022-08-22T22:01:30.338Z,100532.81
2022-08-22T22:03:58.970Z,100526.00
2022-08-22T22:06:27.451Z,100528.72
2022-08-22T22:08:56.837Z,100535.91
2022-08-22T22:11:24.639Z,100533.84
2022-08-22T22:13:52.159Z,100529.78
2022-08-22T22:16:24.293Z,100539.94
2022-08-22T22:18:51.927Z,100539.84
2022-08-22T22:21:19.652Z,100540.53
2022-08-22T22:23:47.216Z,100542.81
2022-08-22T22:26:16.340Z,100538.03
2022-08-22T22:28:48.271Z,100542.75
2022-08-22T22:31:18.276Z,100539.59
2022-08-22T22:33:46.884Z,100531.47
2022-08-22T22:36:19.379Z,100535.56
2022-08-22T22:38:47.905Z,100535.56
2022-08-22T22:41:17.011Z,100540.25
2022-08-22T22:43:44.693Z,100536.59
2022-08-22T22:46:12.522Z,100536.25
2022-08-22T22:48:40.334Z,100543.41
2022-08-22T22:51:08.850Z,100540.63
2022-08-22T22:53:40.165Z,100542.59
2022-08-22T22:56:13.934Z,100530.75
2022-08-22T22:58:43.281Z,100544.22
2022-08-22T23:01:13.541Z,100536.00
2022-08-22T23:03:41.507Z,100536.25
2022-08-22T23:06:12.609Z,100539.75
2022-08-22T23:08:40.432Z,100537.69
2022-08-22T23:11:11.655Z,100534.31
2022-08-22T23:13:39.843Z,100525.78
2022-08-22T23:16:15.553Z,100532.50
2022-08-22T23:18:44.467Z,100526.50
2022-08-22T23:21:14.384Z,100530.81
2022-08-22T23:23:42.592Z,100534.28
2022-08-22T23:26:10.421Z,100527.75
2022-08-22T23:28:38.108Z,100525.53
2022-08-22T23:31:19.422Z,100533.75
2022-08-22T23:33:47.432Z,100535.94
2022-08-22T23:36:17.941Z,100525.84
2022-08-22T23:38:46.964Z,100527.00
2022-08-22T23:41:17.743Z,100523.88
2022-08-22T23:43:49.283Z,100534.75
2022-08-22T23:46:20.586Z,100535.13
2022-08-22T23:48:48.488Z,100532.63
2022-08-22T23:51:18.900Z,100533.38
2022-08-22T23:53:51.356Z,100531.72
2022-08-22T23:56:22.149Z,100527.00
2022-08-22T23:58:51.147Z,100530.81
